createdAt,value
2022-10-18T02:27:59.199Z,102354.25
2022-10-18T02:38:20.823Z,102361.38
2022-10-18T02:41:54.212Z,102363.53
2022-10-18T07:35:58.842Z,102556.50
2022-10-18T08:37:01.552Z,102635.59
2022-10-18T08:39:31.184Z,102629.03
2022-10-18T08:42:34.500Z,102638.59
2022-10-18T08:45:17.700Z,102640.88
2022-10-18T08:47:58.571Z,102642.22
2022-10-18T08:50:34.958Z,102642.47
2022-10-18T08:53:15.033Z,102636.72
2022-10-18T08:55:47.276Z,102638.22
2022-10-18T08:58:20.466Z,102635.00
2022-10-18T09:01:02.054Z,102643.50
2022-10-18T09:03:54.946Z,102642.22
2022-10-18T09:06:31.220Z,102638.31
2022-10-18T09:09:12.994Z,102632.63
2022-10-18T09:11:52.441Z,102638.91
2022-10-18T09:14:38.786Z,102639.81
2022-10-18T09:17:18.649Z,102634.28
2022-10-18T09:20:02.010Z,102620.44
2022-10-18T09:22:41.033Z,102629.38
2022-10-18T09:25:17.624Z,102622.28
2022-10-18T09:27:52.889Z,102627.50
2022-10-18T09:30:34.494Z,102627.31
2022-10-18T09:33:12.018Z,102623.75
2022-10-18T09:35:53.370Z,102632.19
2022-10-18T10:28:04.242Z,102601.88
2022-10-18T11:29:23.565Z,102621.78
2022-10-18T11:34:51.572Z,102628.22
2022-10-18T11:37:44.320Z,102631.00
2022-10-18T11:40:29.032Z,102621.78
2022-10-18T11:43:08.332Z,102628.22
2022-10-18T11:45:43.967Z,102627.97
2022-10-18T11:48:33.404Z,102621.97
2022-10-18T11:51:15.136Z,102622.59
2022-10-18T11:54:11.060Z,102619.06
2022-10-18T11:56:58.276Z,102614.03
2022-10-18T11:59:38.331Z,102609.13
2022-10-18T12:02:32.405Z,102618.75
2022-10-18T12:05:23.718Z,102611.53
2022-10-18T12:07:59.793Z,102612.75
2022-10-18T12:10:44.459Z,102613.81
2022-10-18T12:13:54.972Z,102625.00
2022-10-18T12:51:33.256Z,102577.31
2022-10-18T12:54:15.470Z,102578.34
2022-10-18T12:56:46.973Z,102570.75
2022-10-18T12:59:55.248Z,102575.44
2022-10-18T13:02:32.893Z,102561.03
2022-10-18T13:05:03.875Z,102563.00
2022-10-18T13:07:43.434Z,102563.91
2022-10-18T13:10:42.614Z,102558.00
2022-10-18T13:13:39.767Z,102556.22
2022-10-18T13:16:27.363Z,102548.97
2022-10-18T13:19:03.569Z,102546.25
2022-10-18T13:21:49.824Z,102540.81
2022-10-18T13:24:34.707Z,102552.94
2022-10-18T13:27:35.892Z,102553.94
2022-10-18T13:30:21.104Z,102546.97
2022-10-18T13:32:58.117Z,102554.91
2022-10-18T13:35:54.932Z,102549.59
2022-10-18T13:38:48.600Z,102543.31
2022-10-18T13:41:31.434Z,102535.31
2022-10-18T13:44:29.270Z,102552.75
2022-10-18T13:47:34.966Z,102554.53
2022-10-18T13:50:37.787Z,102552.28
2022-10-18T13:53:36.024Z,102543.63
2022-10-18T13:56:42.748Z,102538.22
2022-10-18T14:02:51.504Z,102550.56
2022-10-18T14:05:59.160Z,102543.75
2022-10-18T14:08:35.906Z,102551.75
2022-10-18T14:11:07.442Z,102551.59
2022-10-18T14:13:49.051Z,102550.53
2022-10-18T14:16:37.804Z,102548.72
2022-10-18T14:19:21.742Z,102543.56
2022-10-18T14:22:01.156Z,102539.25
2022-10-18T14:24:33.935Z,102533.25
2022-10-18T14:27:14.523Z,102539.56
2022-10-18T14:29:44.919Z,102537.78
2022-10-18T14:32:30.707Z,102535.25
2022-10-18T14:37:55.319Z,102541.59
2022-10-18T14:40:34.150Z,102538.22
2022-10-18T14:43:13.721Z,102533.88
2022-10-18T14:45:44.675Z,102545.91
2022-10-18T14:48:27.728Z,102545.72
2022-10-18T14:51:14.412Z,102533.50
2022-10-18T14:53:43.143Z,102538.72
2022-10-18T14:56:52.253Z,102540.22
2022-10-18T14:59:24.887Z,102537.31
2022-10-18T15:02:05.289Z,102545.16
2022-10-18T15:04:51.889Z,102542.47
2022-10-18T15:07:21.264Z,102555.56
2022-10-18T15:09:52.289Z,102552.66
2022-10-18T15:12:21.274Z,102545.63
2022-10-18T15:14:52.456Z,102546.50
2022-10-18T15:17:25.985Z,102537.75
2022-10-18T15:20:21.592Z,102535.09
2022-10-18T15:22:52.317Z,102535.00
2022-10-18T15:28:52.947Z,102514.44
2022-10-18T15:34:23.497Z,102532.34
2022-10-18T15:36:56.515Z,102516.53
2022-10-18T15:39:26.182Z,102517.19
2022-10-18T15:42:01.632Z,102523.97
2022-10-18T15:44:50.637Z,102513.28
2022-10-18T15:47:35.321Z,102517.50
2022-10-18T15:50:39.208Z,102509.53
2022-10-18T15:53:49.812Z,102518.03
2022-10-18T15:56:33.606Z,102513.50
2022-10-18T15:59:09.701Z,102516.91
2022-10-18T16:01:44.041Z,102512.38
2022-10-18T16:04:19.504Z,102512.22
2022-10-18T16:06:47.762Z,102514.81
2022-10-18T16:09:20.730Z,102513.78
2022-10-18T16:11:58.223Z,102508.28
2022-10-18T16:14:30.236Z,102511.00
2022-10-18T16:24:29.754Z,102496.28
2022-10-18T16:31:37.668Z,102504.53
2022-10-18T16:37:54.744Z,102490.19
2022-10-18T16:40:40.425Z,102485.72
2022-10-18T17:03:14.156Z,102499.81
2022-10-18T17:09:24.868Z,102489.22
2022-10-18T17:15:15.733Z,102492.38
2022-10-18T17:18:35.381Z,102494.78
2022-10-18T17:21:18.707Z,102495.59
2022-10-18T17:23:56.122Z,102490.25
